sensor_id;sensor_type;location;lat;lon;timestamp;P1;durP1;ratioP1;P2;durP2;ratioP2
55172;SDS011;41061;52.822;6.860;2023-01-28T00:01:09;10.68;;;9.57;;
55172;SDS011;41061;52.822;6.860;2023-01-28T00:03:37;10.10;;;9.05;;
55172;SDS011;41061;52.822;6.860;2023-01-28T00:06:05;11.13;;;9.15;;
55172;SDS011;41061;52.822;6.860;2023-01-28T00:08:38;10.27;;;8.23;;
55172;SDS011;41061;52.822;6.860;2023-01-28T00:11:05;9.55;;;8.55;;
55172;SDS011;41061;52.822;6.860;2023-01-28T00:13:32;9.05;;;8.15;;
55172;SDS011;41061;52.822;6.860;2023-01-28T00:16:00;9.35;;;8.35;;
55172;SDS011;41061;52.822;6.860;2023-01-28T00:18:28;9.95;;;7.97;;
55172;SDS011;41061;52.822;6.860;2023-01-28T00:20:56;10.25;;;7.78;;
55172;SDS011;41061;52.822;6.860;2023-01-28T00:23:23;8.30;;;7.18;;
55172;SDS011;41061;52.822;6.860;2023-01-28T00:25:49;9.73;;;8.10;;
55172;SDS011;41061;52.822;6.860;2023-01-28T00:28:15;9.40;;;8.20;;
55172;SDS011;41061;52.822;6.860;2023-01-28T00:30:40;10.38;;;8.75;;
55172;SDS011;41061;52.822;6.860;2023-01-28T00:33:06;16.15;;;9.32;;
55172;SDS011;41061;52.822;6.860;2023-01-28T00:35:32;10.30;;;8.98;;
55172;SDS011;41061;52.822;6.860;2023-01-28T00:37:57;11.70;;;8.35;;
55172;SDS011;41061;52.822;6.860;2023-01-28T00:40:24;10.73;;;9.00;;
55172;SDS011;41061;52.822;6.860;2023-01-28T00:42:50;10.02;;;9.02;;
55172;SDS011;41061;52.822;6.860;2023-01-28T00:45:15;11.27;;;9.02;;
55172;SDS011;41061;52.822;6.860;2023-01-28T00:47:41;11.13;;;9.15;;
55172;SDS011;41061;52.822;6.860;2023-01-28T00:50:09;10.57;;;9.15;;
55172;SDS011;41061;52.822;6.860;2023-01-28T00:52:35;9.60;;;8.60;;
55172;SDS011;41061;52.822;6.860;2023-01-28T00:55:01;9.80;;;8.80;;
55172;SDS011;41061;52.822;6.860;2023-01-28T00:57:26;10.00;;;8.65;;
55172;SDS011;41061;52.822;6.860;2023-01-28T00:59:52;9.50;;;8.18;;
55172;SDS011;41061;52.822;6.860;2023-01-28T01:02:18;7.88;;;7.07;;
55172;SDS011;41061;52.822;6.860;2023-01-28T01:04:44;8.27;;;7.47;;
55172;SDS011;41061;52.822;6.860;2023-01-28T01:07:20;7.70;;;6.90;;
55172;SDS011;41061;52.822;6.860;2023-01-28T01:10:06;7.38;;;6.68;;
55172;SDS011;41061;52.822;6.860;2023-01-28T01:12:37;9.95;;;7.10;;
55172;SDS011;41061;52.822;6.860;2023-01-28T01:15:03;8.93;;;7.50;;
55172;SDS011;41061;52.822;6.860;2023-01-28T01:17:33;7.18;;;6.47;;
55172;SDS011;41061;52.822;6.860;2023-01-28T01:19:59;8.23;;;6.13;;
55172;SDS011;41061;52.822;6.860;2023-01-28T01:22:25;7.57;;;6.28;;
55172;SDS011;41061;52.822;6.860;2023-01-28T01:24:50;6.75;;;6.00;;
55172;SDS011;41061;52.822;6.860;2023-01-28T01:27:16;7.63;;;5.80;;
55172;SDS011;41061;52.822;6.860;2023-01-28T01:29:42;5.72;;;5.22;;
55172;SDS011;41061;52.822;6.860;2023-01-28T01:32:08;5.85;;;5.30;;
55172;SDS011;41061;52.822;6.860;2023-01-28T01:34:33;5.70;;;5.20;;
55172;SDS011;41061;52.822;6.860;2023-01-28T01:36:59;6.25;;;5.65;;
55172;SDS011;41061;52.822;6.860;2023-01-28T01:39:25;6.18;;;5.57;;
55172;SDS011;41061;52.822;6.860;2023-01-28T01:41:50;7.82;;;5.65;;
55172;SDS011;41061;52.822;6.860;2023-01-28T01:47:20;7.20;;;6.50;;
55172;SDS011;41061;52.822;6.860;2023-01-28T01:50:27;6.55;;;5.95;;
55172;SDS011;41061;52.822;6.860;2023-01-28T01:53:01;9.00;;;6.50;;
55172;SDS011;41061;52.822;6.860;2023-01-28T01:55:40;6.97;;;6.25;;
55172;SDS011;41061;52.822;6.860;2023-01-28T01:58:10;6.97;;;6.32;;
55172;SDS011;41061;52.822;6.860;2023-01-28T02:00:39;7.93;;;5.78;;
55172;SDS011;41061;52.822;6.860;2023-01-28T02:03:06;7.32;;;5.93;;
55172;SDS011;41061;52.822;6.860;2023-01-28T02:05:33;6.05;;;5.38;;
55172;SDS011;41061;52.822;6.860;2023-01-28T02:07:58;8.45;;;6.05;;
55172;SDS011;41061;52.822;6.860;2023-01-28T02:10:49;6.72;;;5.60;;
55172;SDS011;41061;52.822;6.860;2023-01-28T02:13:27;7.32;;;5.93;;
55172;SDS011;41061;52.822;6.860;2023-01-28T02:15:56;6.63;;;5.40;;
55172;SDS011;41061;52.822;6.860;2023-01-28T02:18:24;6.45;;;5.85;;
55172;SDS011;41061;52.822;6.860;2023-01-28T02:20:57;6.10;;;5.40;;
55172;SDS011;41061;52.822;6.860;2023-01-28T02:29:16;7.15;;;5.80;;
55172;SDS011;41061;52.822;6.860;2023-01-28T02:31:53;6.28;;;5.22;;
55172;SDS011;41061;52.822;6.860;2023-01-28T02:37:04;7.00;;;5.63;;
55172;SDS011;41061;52.822;6.860;2023-01-28T02:39:37;7.88;;;5.88;;
55172;SDS011;41061;52.822;6.860;2023-01-28T02:42:07;7.03;;;5.72;;
55172;SDS011;41061;52.822;6.860;2023-01-28T02:44:40;7.72;;;6.03;;
55172;SDS011;41061;52.822;6.860;2023-01-28T02:47:12;8.45;;;6.18;;
55172;SDS011;41061;52.822;6.860;2023-01-28T02:49:58;8.05;;;6.10;;
55172;SDS011;41061;52.822;6.860;2023-01-28T02:55:41;8.90;;;6.05;;
55172;SDS011;41061;52.822;6.860;2023-01-28T03:00:48;7.43;;;6.50;;
55172;SDS011;41061;52.822;6.860;2023-01-28T03:06:19;7.53;;;6.20;;
55172;SDS011;41061;52.822;6.860;2023-01-28T03:14:46;9.48;;;7.30;;
55172;SDS011;41061;52.822;6.860;2023-01-28T03:17:52;9.57;;;7.07;;
55172;SDS011;41061;52.822;6.860;2023-01-28T03:26:45;10.60;;;6.43;;
55172;SDS011;41061;52.822;6.860;2023-01-28T03:29:45;8.07;;;6.30;;
55172;SDS011;41061;52.822;6.860;2023-01-28T03:32:32;6.88;;;6.07;;
55172;SDS011;41061;52.822;6.860;2023-01-28T03:35:19;7.07;;;6.28;;
55172;SDS011;41061;52.822;6.860;2023-01-28T03:38:05;7.30;;;6.22;;
55172;SDS011;41061;52.822;6.860;2023-01-28T03:40:52;6.88;;;5.95;;
55172;SDS011;41061;52.822;6.860;2023-01-28T03:43:21;8.02;;;7.07;;
55172;SDS011;41061;52.822;6.860;2023-01-28T03:45:47;8.88;;;6.70;;
55172;SDS011;41061;52.822;6.860;2023-01-28T03:48:20;8.05;;;6.95;;
55172;SDS011;41061;52.822;6.860;2023-01-28T03:50:47;8.43;;;6.95;;
55172;SDS011;41061;52.822;6.860;2023-01-28T03:53:13;9.27;;;6.55;;
55172;SDS011;41061;52.822;6.860;2023-01-28T03:55:40;8.23;;;6.63;;
55172;SDS011;41061;52.822;6.860;2023-01-28T03:58:07;10.02;;;7.40;;
55172;SDS011;41061;52.822;6.860;2023-01-28T04:00:33;8.95;;;6.78;;
55172;SDS011;41061;52.822;6.860;2023-01-28T04:03:02;8.75;;;6.88;;
55172;SDS011;41061;52.822;6.860;2023-01-28T04:05:29;8.85;;;7.28;;
55172;SDS011;41061;52.822;6.860;2023-01-28T04:07:55;10.60;;;7.35;;
55172;SDS011;41061;52.822;6.860;2023-01-28T04:10:21;7.88;;;7.07;;
55172;SDS011;41061;52.822;6.860;2023-01-28T04:12:47;10.27;;;7.18;;
55172;SDS011;41061;52.822;6.860;2023-01-28T04:15:18;9.18;;;6.90;;
55172;SDS011;41061;52.822;6.860;2023-01-28T04:17:44;8.98;;;7.43;;
55172;SDS011;41061;52.822;6.860;2023-01-28T04:20:11;12.50;;;7.15;;
55172;SDS011;41061;52.822;6.860;2023-01-28T04:22:37;7.65;;;6.57;;
55172;SDS011;41061;52.822;6.860;2023-01-28T04:25:03;7.53;;;6.78;;
55172;SDS011;41061;52.822;6.860;2023-01-28T04:27:29;8.90;;;6.95;;
55172;SDS011;41061;52.822;6.860;2023-01-28T04:29:54;8.52;;;6.82;;
55172;SDS011;41061;52.822;6.860;2023-01-28T04:32:20;8.07;;;6.72;;
55172;SDS011;41061;52.822;6.860;2023-01-28T04:34:46;7.72;;;6.93;;
55172;SDS011;41061;52.822;6.860;2023-01-28T04:37:11;7.68;;;6.70;;
55172;SDS011;41061;52.822;6.860;2023-01-28T04:39:37;10.20;;;6.78;;
55172;SDS011;41061;52.822;6.860;2023-01-28T04:42:02;7.75;;;6.53;;
55172;SDS011;41061;52.822;6.860;2023-01-28T04:44:28;7.70;;;6.72;;
55172;SDS011;41061;52.822;6.860;2023-01-28T04:46:54;7.97;;;7.13;;
55172;SDS011;41061;52.822;6.860;2023-01-28T04:49:19;8.50;;;7.28;;
55172;SDS011;41061;52.822;6.860;2023-01-28T04:51:45;7.63;;;6.45;;
55172;SDS011;41061;52.822;6.860;2023-01-28T04:54:11;7.85;;;6.00;;
55172;SDS011;41061;52.822;6.860;2023-01-28T04:56:36;7.93;;;6.50;;
55172;SDS011;41061;52.822;6.860;2023-01-28T04:59:02;7.95;;;6.30;;
55172;SDS011;41061;52.822;6.860;2023-01-28T05:01:28;7.53;;;6.65;;
55172;SDS011;41061;52.822;6.860;2023-01-28T05:03:54;8.30;;;6.47;;
55172;SDS011;41061;52.822;6.860;2023-01-28T05:06:19;10.63;;;6.70;;
55172;SDS011;41061;52.822;6.860;2023-01-28T05:08:45;8.23;;;6.90;;
55172;SDS011;41061;52.822;6.860;2023-01-28T05:11:11;9.15;;;6.28;;
55172;SDS011;41061;52.822;6.860;2023-01-28T05:13:37;7.00;;;6.05;;
55172;SDS011;41061;52.822;6.860;2023-01-28T05:16:04;7.25;;;6.15;;
55172;SDS011;41061;52.822;6.860;2023-01-28T05:18:30;6.35;;;5.57;;
55172;SDS011;41061;52.822;6.860;2023-01-28T05:20:56;6.70;;;5.93;;
55172;SDS011;41061;52.822;6.860;2023-01-28T05:23:22;7.50;;;5.95;;
55172;SDS011;41061;52.822;6.860;2023-01-28T05:25:48;11.68;;;6.10;;
55172;SDS011;41061;52.822;6.860;2023-01-28T05:28:14;6.88;;;5.85;;
55172;SDS011;41061;52.822;6.860;2023-01-28T05:30:40;9.20;;;6.32;;
55172;SDS011;41061;52.822;6.860;2023-01-28T05:33:06;8.05;;;5.72;;
55172;SDS011;41061;52.822;6.860;2023-01-28T05:35:32;6.90;;;6.00;;
55172;SDS011;41061;52.822;6.860;2023-01-28T05:37:57;6.75;;;5.75;;
55172;SDS011;41061;52.822;6.860;2023-01-28T05:40:23;9.73;;;6.32;;
55172;SDS011;41061;52.822;6.860;2023-01-28T05:42:49;6.95;;;5.97;;
55172;SDS011;41061;52.822;6.860;2023-01-28T05:45:15;7.57;;;6.75;;
55172;SDS011;41061;52.822;6.860;2023-01-28T05:47:40;7.18;;;5.88;;
55172;SDS011;41061;52.822;6.860;2023-01-28T05:50:07;7.97;;;6.50;;
55172;SDS011;41061;52.822;6.860;2023-01-28T05:52:33;9.10;;;6.47;;
55172;SDS011;41061;52.822;6.860;2023-01-28T05:54:59;8.27;;;7.28;;
55172;SDS011;41061;52.822;6.860;2023-01-28T05:57:25;8.27;;;6.60;;
55172;SDS011;41061;52.822;6.860;2023-01-28T05:59:51;8.95;;;6.97;;
55172;SDS011;41061;52.822;6.860;2023-01-28T06:02:17;7.43;;;6.38;;
55172;SDS011;41061;52.822;6.860;2023-01-28T06:04:42;8.18;;;6.97;;
55172;SDS011;41061;52.822;6.860;2023-01-28T06:07:08;10.82;;;6.45;;
55172;SDS011;41061;52.822;6.860;2023-01-28T06:09:37;8.32;;;6.40;;
55172;SDS011;41061;52.822;6.860;2023-01-28T06:12:03;9.30;;;6.05;;
55172;SDS011;41061;52.822;6.860;2023-01-28T06:14:29;10.52;;;6.90;;
55172;SDS011;41061;52.822;6.860;2023-01-28T06:16:55;8.25;;;6.85;;
55172;SDS011;41061;52.822;6.860;2023-01-28T06:19:20;8.60;;;7.28;;
55172;SDS011;41061;52.822;6.860;2023-01-28T06:21:46;7.97;;;6.20;;
55172;SDS011;41061;52.822;6.860;2023-01-28T06:24:12;7.93;;;6.50;;
55172;SDS011;41061;52.822;6.860;2023-01-28T06:26:38;9.10;;;6.72;;
55172;SDS011;41061;52.822;6.860;2023-01-28T06:29:03;10.85;;;6.85;;
55172;SDS011;41061;52.822;6.860;2023-01-28T06:31:29;9.55;;;6.50;;
55172;SDS011;41061;52.822;6.860;2023-01-28T06:33:55;7.45;;;5.90;;
55172;SDS011;41061;52.822;6.860;2023-01-28T06:36:20;7.85;;;6.55;;
55172;SDS011;41061;52.822;6.860;2023-01-28T06:38:46;9.40;;;6.18;;
55172;SDS011;41061;52.822;6.860;2023-01-28T06:41:12;7.78;;;6.35;;
55172;SDS011;41061;52.822;6.860;2023-01-28T06:43:38;8.23;;;6.65;;
55172;SDS011;41061;52.822;6.860;2023-01-28T06:46:03;10.00;;;7.60;;
55172;SDS011;41061;52.822;6.860;2023-01-28T06:48:29;9.60;;;7.93;;
55172;SDS011;41061;52.822;6.860;2023-01-28T06:50:55;11.65;;;8.90;;
55172;SDS011;41061;52.822;6.860;2023-01-28T06:53:20;9.00;;;7.32;;
55172;SDS011;41061;52.822;6.860;2023-01-28T06:55:46;11.45;;;8.73;;
55172;SDS011;41061;52.822;6.860;2023-01-28T06:58:12;9.70;;;7.72;;
55172;SDS011;41061;52.822;6.860;2023-01-28T07:00:38;11.68;;;8.32;;
55172;SDS011;41061;52.822;6.860;2023-01-28T07:03:04;10.23;;;8.23;;
55172;SDS011;41061;52.822;6.860;2023-01-28T07:05:30;11.07;;;8.10;;
55172;SDS011;41061;52.822;6.860;2023-01-28T07:07:56;11.18;;;8.00;;
55172;SDS011;41061;52.822;6.860;2023-01-28T07:10:21;12.07;;;8.23;;
55172;SDS011;41061;52.822;6.860;2023-01-28T07:12:47;10.32;;;7.70;;
55172;SDS011;41061;52.822;6.860;2023-01-28T07:15:13;10.32;;;7.57;;
55172;SDS011;41061;52.822;6.860;2023-01-28T07:17:39;9.07;;;7.57;;
55172;SDS011;41061;52.822;6.860;2023-01-28T07:20:09;11.00;;;8.15;;
55172;SDS011;41061;52.822;6.860;2023-01-28T07:22:37;12.52;;;8.90;;
55172;SDS011;41061;52.822;6.860;2023-01-28T07:25:05;9.35;;;7.90;;
55172;SDS011;41061;52.822;6.860;2023-01-28T07:27:31;12.82;;;8.73;;
55172;SDS011;41061;52.822;6.860;2023-01-28T07:29:57;12.23;;;8.73;;
55172;SDS011;41061;52.822;6.860;2023-01-28T07:32:23;12.00;;;8.77;;
55172;SDS011;41061;52.822;6.860;2023-01-28T07:34:51;12.40;;;8.63;;
55172;SDS011;41061;52.822;6.860;2023-01-28T07:37:17;11.93;;;8.93;;
55172;SDS011;41061;52.822;6.860;2023-01-28T07:39:43;12.95;;;8.85;;
55172;SDS011;41061;52.822;6.860;2023-01-28T07:42:08;11.07;;;8.60;;
55172;SDS011;41061;52.822;6.860;2023-01-28T07:44:34;10.32;;;8.35;;
55172;SDS011;41061;52.822;6.860;2023-01-28T07:47:01;11.40;;;9.02;;
55172;SDS011;41061;52.822;6.860;2023-01-28T07:49:27;11.38;;;9.32;;
55172;SDS011;41061;52.822;6.860;2023-01-28T07:51:53;11.35;;;8.85;;
55172;SDS011;41061;52.822;6.860;2023-01-28T07:54:19;11.85;;;8.38;;
55172;SDS011;41061;52.822;6.860;2023-01-28T07:56:45;10.77;;;8.00;;
55172;SDS011;41061;52.822;6.860;2023-01-28T07:59:11;10.63;;;8.40;;
55172;SDS011;41061;52.822;6.860;2023-01-28T08:01:36;10.95;;;8.15;;
55172;SDS011;41061;52.822;6.860;2023-01-28T08:04:02;11.25;;;8.35;;
55172;SDS011;41061;52.822;6.860;2023-01-28T08:06:28;10.15;;;8.40;;
55172;SDS011;41061;52.822;6.860;2023-01-28T08:08:54;9.57;;;7.75;;
55172;SDS011;41061;52.822;6.860;2023-01-28T08:11:19;14.00;;;8.90;;
55172;SDS011;41061;52.822;6.860;2023-01-28T08:13:45;10.82;;;8.40;;
55172;SDS011;41061;52.822;6.860;2023-01-28T08:16:12;10.65;;;8.70;;
55172;SDS011;41061;52.822;6.860;2023-01-28T08:18:38;10.00;;;8.00;;
55172;SDS011;41061;52.822;6.860;2023-01-28T08:21:03;10.73;;;7.68;;
55172;SDS011;41061;52.822;6.860;2023-01-28T08:23:29;10.10;;;7.82;;
55172;SDS011;41061;52.822;6.860;2023-01-28T08:25:58;12.27;;;8.82;;
55172;SDS011;41061;52.822;6.860;2023-01-28T08:28:25;10.43;;;8.18;;
55172;SDS011;41061;52.822;6.860;2023-01-28T08:30:51;12.23;;;8.30;;
55172;SDS011;41061;52.822;6.860;2023-01-28T08:33:17;9.65;;;8.20;;
55172;SDS011;41061;52.822;6.860;2023-01-28T08:35:43;12.77;;;9.40;;
55172;SDS011;41061;52.822;6.860;2023-01-28T08:38:10;13.52;;;8.38;;
55172;SDS011;41061;52.822;6.860;2023-01-28T08:40:37;15.57;;;9.55;;
55172;SDS011;41061;52.822;6.860;2023-01-28T08:43:03;11.80;;;9.63;;
55172;SDS011;41061;52.822;6.860;2023-01-28T08:45:29;12.27;;;9.15;;
55172;SDS011;41061;52.822;6.860;2023-01-28T08:53:02;15.32;;;10.57;;
55172;SDS011;41061;52.822;6.860;2023-01-28T08:55:34;11.73;;;9.07;;
55172;SDS011;41061;52.822;6.860;2023-01-28T08:58:07;11.13;;;8.73;;
55172;SDS011;41061;52.822;6.860;2023-01-28T09:00:36;13.52;;;10.60;;
55172;SDS011;41061;52.822;6.860;2023-01-28T09:03:03;13.38;;;9.05;;
55172;SDS011;41061;52.822;6.860;2023-01-28T09:05:30;12.88;;;9.98;;
55172;SDS011;41061;52.822;6.860;2023-01-28T09:07:59;11.10;;;8.93;;
55172;SDS011;41061;52.822;6.860;2023-01-28T09:10:30;11.13;;;8.95;;
55172;SDS011;41061;52.822;6.860;2023-01-28T09:12:56;10.82;;;8.80;;
55172;SDS011;41061;52.822;6.860;2023-01-28T09:15:21;11.25;;;9.00;;
55172;SDS011;41061;52.822;6.860;2023-01-28T09:17:47;13.90;;;8.52;;
55172;SDS011;41061;52.822;6.860;2023-01-28T09:20:13;11.73;;;7.93;;
55172;SDS011;41061;52.822;6.860;2023-01-28T09:22:38;10.80;;;8.68;;
55172;SDS011;41061;52.822;6.860;2023-01-28T09:25:04;11.90;;;8.52;;
55172;SDS011;41061;52.822;6.860;2023-01-28T09:27:31;13.18;;;9.80;;
55172;SDS011;41061;52.822;6.860;2023-01-28T09:29:57;10.25;;;7.97;;
55172;SDS011;41061;52.822;6.860;2023-01-28T09:32:23;10.10;;;8.60;;
55172;SDS011;41061;52.822;6.860;2023-01-28T09:34:49;11.27;;;8.50;;
55172;SDS011;41061;52.822;6.860;2023-01-28T09:37:15;10.93;;;9.00;;
55172;SDS011;41061;52.822;6.860;2023-01-28T09:39:42;9.73;;;8.10;;
55172;SDS011;41061;52.822;6.860;2023-01-28T09:42:23;11.80;;;8.50;;
55172;SDS011;41061;52.822;6.860;2023-01-28T09:47:54;11.98;;;8.40;;
55172;SDS011;41061;52.822;6.860;2023-01-28T09:50:32;12.13;;;8.40;;
55172;SDS011;41061;52.822;6.860;2023-01-28T09:53:10;16.38;;;10.73;;
55172;SDS011;41061;52.822;6.860;2023-01-28T09:55:52;13.82;;;10.27;;
55172;SDS011;41061;52.822;6.860;2023-01-28T09:58:20;13.65;;;8.82;;
55172;SDS011;41061;52.822;6.860;2023-01-28T10:00:58;12.32;;;8.55;;
55172;SDS011;41061;52.822;6.860;2023-01-28T10:17:15;14.75;;;10.35;;
55172;SDS011;41061;52.822;6.860;2023-01-28T10:19:52;18.77;;;12.82;;
55172;SDS011;41061;52.822;6.860;2023-01-28T10:22:26;11.82;;;8.30;;
55172;SDS011;41061;52.822;6.860;2023-01-28T10:25:01;10.63;;;8.60;;
55172;SDS011;41061;52.822;6.860;2023-01-28T10:27:31;15.63;;;8.93;;
55172;SDS011;41061;52.822;6.860;2023-01-28T10:29:59;10.23;;;7.78;;
55172;SDS011;41061;52.822;6.860;2023-01-28T10:33:00;13.88;;;9.02;;
55172;SDS011;41061;52.822;6.860;2023-01-28T10:35:48;10.48;;;7.90;;
55172;SDS011;41061;52.822;6.860;2023-01-28T10:38:14;9.15;;;7.63;;
55172;SDS011;41061;52.822;6.860;2023-01-28T10:40:45;11.20;;;7.03;;
55172;SDS011;41061;52.822;6.860;2023-01-28T10:43:13;10.25;;;6.85;;
55172;SDS011;41061;52.822;6.860;2023-01-28T10:48:32;10.98;;;6.97;;
55172;SDS011;41061;52.822;6.860;2023-01-28T10:51:02;8.30;;;6.75;;
55172;SDS011;41061;52.822;6.860;2023-01-28T10:53:37;10.02;;;7.80;;
55172;SDS011;41061;52.822;6.860;2023-01-28T10:56:06;10.68;;;7.93;;
55172;SDS011;41061;52.822;6.860;2023-01-28T11:01:22;11.40;;;7.80;;
55172;SDS011;41061;52.822;6.860;2023-01-28T11:03:55;14.32;;;8.15;;
55172;SDS011;41061;52.822;6.860;2023-01-28T11:06:26;10.77;;;7.80;;
55172;SDS011;41061;52.822;6.860;2023-01-28T11:08:53;8.18;;;6.65;;
55172;SDS011;41061;52.822;6.860;2023-01-28T11:11:26;11.65;;;7.72;;
55172;SDS011;41061;52.822;6.860;2023-01-28T11:13:53;11.40;;;7.07;;
55172;SDS011;41061;52.822;6.860;2023-01-28T11:16:22;10.90;;;8.07;;
55172;SDS011;41061;52.822;6.860;2023-01-28T11:18:53;10.93;;;7.00;;
55172;SDS011;41061;52.822;6.860;2023-01-28T11:21:24;9.35;;;7.03;;
55172;SDS011;41061;52.822;6.860;2023-01-28T11:23:53;10.15;;;7.55;;
55172;SDS011;41061;52.822;6.860;2023-01-28T11:26:26;9.60;;;8.00;;
55172;SDS011;41061;52.822;6.860;2023-01-28T11:29:04;9.95;;;8.32;;
55172;SDS011;41061;52.822;6.860;2023-01-28T11:31:35;10.20;;;7.78;;
55172;SDS011;41061;52.822;6.860;2023-01-28T11:34:06;11.88;;;7.55;;
55172;SDS011;41061;52.822;6.860;2023-01-28T11:36:32;9.68;;;7.55;;
55172;SDS011;41061;52.822;6.860;2023-01-28T11:39:00;10.05;;;7.20;;
55172;SDS011;41061;52.822;6.860;2023-01-28T11:41:41;10.10;;;7.50;;
55172;SDS011;41061;52.822;6.860;2023-01-28T12:00:59;10.55;;;7.43;;
55172;SDS011;41061;52.822;6.860;2023-01-28T12:18:03;10.45;;;7.45;;
55172;SDS011;41061;52.822;6.860;2023-01-28T12:43:13;9.23;;;5.60;;
55172;SDS011;41061;52.822;6.860;2023-01-28T12:45:54;7.95;;;6.32;;
55172;SDS011;41061;52.822;6.860;2023-01-28T12:48:41;9.48;;;6.07;;
55172;SDS011;41061;52.822;6.860;2023-01-28T12:53:56;7.57;;;5.80;;
55172;SDS011;41061;52.822;6.860;2023-01-28T12:56:28;8.60;;;6.20;;
55172;SDS011;41061;52.822;6.860;2023-01-28T13:01:43;8.35;;;6.50;;
55172;SDS011;41061;52.822;6.860;2023-01-28T13:04:55;8.30;;;5.38;;
55172;SDS011;41061;52.822;6.860;2023-01-28T13:09:42;9.52;;;5.93;;
55172;SDS011;41061;52.822;6.860;2023-01-28T13:12:15;9.73;;;5.53;;
55172;SDS011;41061;52.822;6.860;2023-01-28T13:14:42;12.50;;;6.13;;
55172;SDS011;41061;52.822;6.860;2023-01-28T13:17:23;8.95;;;5.40;;
55172;SDS011;41061;52.822;6.860;2023-01-28T13:19:53;7.28;;;5.93;;
55172;SDS011;41061;52.822;6.860;2023-01-28T13:22:37;6.90;;;5.47;;
55172;SDS011;41061;52.822;6.860;2023-01-28T13:25:19;8.32;;;5.45;;
55172;SDS011;41061;52.822;6.860;2023-01-28T13:27:58;8.35;;;5.47;;
55172;SDS011;41061;52.822;6.860;2023-01-28T13:30:29;8.13;;;5.80;;
55172;SDS011;41061;52.822;6.860;2023-01-28T13:33:27;10.73;;;6.15;;
55172;SDS011;41061;52.822;6.860;2023-01-28T13:35:54;9.00;;;5.70;;
55172;SDS011;41061;52.822;6.860;2023-01-28T13:38:21;11.45;;;6.63;;
55172;SDS011;41061;52.822;6.860;2023-01-28T13:40:57;12.32;;;6.85;;
55172;SDS011;41061;52.822;6.860;2023-01-28T13:46:03;10.05;;;7.03;;
55172;SDS011;41061;52.822;6.860;2023-01-28T13:59:28;11.35;;;7.95;;
55172;SDS011;41061;52.822;6.860;2023-01-28T14:02:16;9.93;;;7.43;;
55172;SDS011;41061;52.822;6.860;2023-01-28T14:11:00;11.23;;;7.05;;
55172;SDS011;41061;52.822;6.860;2023-01-28T14:19:07;9.73;;;7.00;;
55172;SDS011;41061;52.822;6.860;2023-01-28T14:21:37;10.18;;;7.32;;
55172;SDS011;41061;52.822;6.860;2023-01-28T14:24:03;11.57;;;8.70;;
55172;SDS011;41061;52.822;6.860;2023-01-28T14:26:35;15.82;;;8.02;;
55172;SDS011;41061;52.822;6.860;2023-01-28T14:32:10;11.75;;;7.85;;
55172;SDS011;41061;52.822;6.860;2023-01-28T14:34:40;12.98;;;7.82;;
55172;SDS011;41061;52.822;6.860;2023-01-28T14:37:08;13.23;;;7.88;;
55172;SDS011;41061;52.822;6.860;2023-01-28T14:42:13;14.73;;;8.68;;
55172;SDS011;41061;52.822;6.860;2023-01-28T14:44:47;11.70;;;8.38;;
55172;SDS011;41061;52.822;6.860;2023-01-28T14:58:47;14.40;;;9.20;;
55172;SDS011;41061;52.822;6.860;2023-01-28T15:01:26;14.38;;;8.65;;
55172;SDS011;41061;52.822;6.860;2023-01-28T15:03:53;16.50;;;8.98;;
55172;SDS011;41061;52.822;6.860;2023-01-28T15:06:21;14.88;;;9.10;;
55172;SDS011;41061;52.822;6.860;2023-01-28T15:09:03;15.98;;;10.00;;
55172;SDS011;41061;52.822;6.860;2023-01-28T15:11:34;15.73;;;8.32;;
55172;SDS011;41061;52.822;6.860;2023-01-28T15:14:03;15.68;;;9.85;;
55172;SDS011;41061;52.822;6.860;2023-01-28T15:16:29;16.33;;;9.30;;
55172;SDS011;41061;52.822;6.860;2023-01-28T15:18:59;15.77;;;9.43;;
55172;SDS011;41061;52.822;6.860;2023-01-28T15:21:26;16.85;;;9.15;;
55172;SDS011;41061;52.822;6.860;2023-01-28T15:23:54;12.65;;;8.93;;
55172;SDS011;41061;52.822;6.860;2023-01-28T15:26:22;14.43;;;9.10;;
55172;SDS011;41061;52.822;6.860;2023-01-28T15:28:53;15.95;;;9.07;;
55172;SDS011;41061;52.822;6.860;2023-01-28T15:34:15;17.83;;;9.98;;
55172;SDS011;41061;52.822;6.860;2023-01-28T15:36:43;16.13;;;9.57;;
55172;SDS011;41061;52.822;6.860;2023-01-28T15:39:15;16.63;;;9.30;;
55172;SDS011;41061;52.822;6.860;2023-01-28T15:41:43;17.25;;;9.68;;
55172;SDS011;41061;52.822;6.860;2023-01-28T15:44:17;17.45;;;9.95;;
55172;SDS011;41061;52.822;6.860;2023-01-28T15:46:47;14.85;;;10.02;;
55172;SDS011;41061;52.822;6.860;2023-01-28T15:49:13;15.95;;;10.13;;
55172;SDS011;41061;52.822;6.860;2023-01-28T15:51:41;17.20;;;10.45;;
55172;SDS011;41061;52.822;6.860;2023-01-28T15:54:15;19.63;;;9.63;;
55172;SDS011;41061;52.822;6.860;2023-01-28T15:56:41;18.25;;;9.93;;
55172;SDS011;41061;52.822;6.860;2023-01-28T15:59:08;17.52;;;10.20;;
55172;SDS011;41061;52.822;6.860;2023-01-28T16:01:40;17.40;;;10.52;;
55172;SDS011;41061;52.822;6.860;2023-01-28T16:04:06;16.52;;;9.93;;
55172;SDS011;41061;52.822;6.860;2023-01-28T16:09:23;16.90;;;10.35;;
55172;SDS011;41061;52.822;6.860;2023-01-28T16:12:02;16.35;;;10.15;;
55172;SDS011;41061;52.822;6.860;2023-01-28T16:14:41;21.17;;;9.63;;
55172;SDS011;41061;52.822;6.860;2023-01-28T16:17:15;14.68;;;9.23;;
55172;SDS011;41061;52.822;6.860;2023-01-28T16:19:45;13.20;;;8.95;;
55172;SDS011;41061;52.822;6.860;2023-01-28T16:22:21;14.85;;;9.90;;
55172;SDS011;41061;52.822;6.860;2023-01-28T16:24:53;15.55;;;9.55;;
55172;SDS011;41061;52.822;6.860;2023-01-28T16:27:20;13.95;;;9.65;;
55172;SDS011;41061;52.822;6.860;2023-01-28T16:29:47;14.38;;;9.20;;
55172;SDS011;41061;52.822;6.860;2023-01-28T16:32:26;13.48;;;8.85;;
55172;SDS011;41061;52.822;6.860;2023-01-28T16:34:52;18.88;;;9.30;;
55172;SDS011;41061;52.822;6.860;2023-01-28T16:37:18;14.85;;;8.63;;
55172;SDS011;41061;52.822;6.860;2023-01-28T16:39:44;15.25;;;8.85;;
55172;SDS011;41061;52.822;6.860;2023-01-28T16:42:09;15.05;;;9.57;;
55172;SDS011;41061;52.822;6.860;2023-01-28T16:44:35;13.93;;;9.35;;
55172;SDS011;41061;52.822;6.860;2023-01-28T16:47:00;14.18;;;9.02;;
55172;SDS011;41061;52.822;6.860;2023-01-28T16:49:28;13.52;;;8.30;;
55172;SDS011;41061;52.822;6.860;2023-01-28T16:51:54;15.05;;;8.27;;
55172;SDS011;41061;52.822;6.860;2023-01-28T16:54:20;14.90;;;9.07;;
55172;SDS011;41061;52.822;6.860;2023-01-28T16:56:46;16.80;;;9.00;;
55172;SDS011;41061;52.822;6.860;2023-01-28T16:59:12;14.80;;;9.38;;
55172;SDS011;41061;52.822;6.860;2023-01-28T17:01:39;15.10;;;9.80;;
55172;SDS011;41061;52.822;6.860;2023-01-28T17:04:05;14.10;;;9.05;;
55172;SDS011;41061;52.822;6.860;2023-01-28T17:06:34;13.90;;;8.68;;
55172;SDS011;41061;52.822;6.860;2023-01-28T17:09:04;14.55;;;9.02;;
55172;SDS011;41061;52.822;6.860;2023-01-28T17:11:30;15.63;;;9.63;;
55172;SDS011;41061;52.822;6.860;2023-01-28T17:13:56;18.77;;;9.80;;
55172;SDS011;41061;52.822;6.860;2023-01-28T17:16:22;18.85;;;9.98;;
55172;SDS011;41061;52.822;6.860;2023-01-28T17:18:50;15.35;;;9.70;;
55172;SDS011;41061;52.822;6.860;2023-01-28T17:21:17;14.48;;;9.30;;
55172;SDS011;41061;52.822;6.860;2023-01-28T17:23:43;17.98;;;10.38;;
55172;SDS011;41061;52.822;6.860;2023-01-28T17:26:10;17.48;;;9.90;;
55172;SDS011;41061;52.822;6.860;2023-01-28T17:28:38;17.92;;;9.95;;
55172;SDS011;41061;52.822;6.860;2023-01-28T17:31:07;16.00;;;9.95;;
55172;SDS011;41061;52.822;6.860;2023-01-28T17:33:38;17.85;;;9.60;;
55172;SDS011;41061;52.822;6.860;2023-01-28T17:36:04;18.10;;;10.63;;
55172;SDS011;41061;52.822;6.860;2023-01-28T17:38:30;19.58;;;11.30;;
55172;SDS011;41061;52.822;6.860;2023-01-28T17:41:03;15.82;;;10.18;;
55172;SDS011;41061;52.822;6.860;2023-01-28T17:43:31;19.52;;;11.05;;